createdAt,value
2023-05-18T00:02:05.946Z,12.77
2023-05-18T00:04:34.575Z,24.48
2023-05-18T00:07:06.883Z,16.27
2023-05-18T00:09:36.958Z,14.23
2023-05-18T00:12:05.575Z,16.58
2023-05-18T00:14:32.587Z,17.65
2023-05-18T00:17:01.837Z,14.93
2023-05-18T00:19:30.114Z,22.30
2023-05-18T00:21:57.998Z,13.77
2023-05-18T00:24:25.175Z,14.60
2023-05-18T00:26:52.051Z,18.02
2023-05-18T00:29:19.018Z,13.80
2023-05-18T00:31:47.012Z,16.75
2023-05-18T00:34:15.578Z,12.50
2023-05-18T00:36:43.009Z,16.30
2023-05-18T00:39:10.334Z,20.23
2023-05-18T00:41:37.374Z,16.10
2023-05-18T00:44:05.117Z,22.75
2023-05-18T00:46:32.458Z,20.70
2023-05-18T00:49:01.871Z,12.80
2023-05-18T00:51:29.972Z,21.98
2023-05-18T00:54:00.214Z,17.33
2023-05-18T00:56:28.482Z,17.13
2023-05-18T00:58:57.460Z,13.25
2023-05-18T01:01:30.747Z,18.42
2023-05-18T01:04:02.169Z,15.52
2023-05-18T01:06:36.039Z,20.50
2023-05-18T01:09:07.049Z,17.98
2023-05-18T01:11:57.143Z,18.58
2023-05-18T01:14:35.006Z,16.65
2023-05-18T01:17:24.242Z,13.35
2023-05-18T01:20:00.063Z,16.15
2023-05-18T01:23:01.953Z,15.93
2023-05-18T01:26:12.079Z,15.60
2023-05-18T01:28:40.393Z,21.10
2023-05-18T01:31:08.059Z,13.43
2023-05-18T01:33:35.116Z,20.25
2023-05-18T01:36:02.094Z,17.17
2023-05-18T01:38:29.380Z,14.27
2023-05-18T01:41:18.536Z,19.40
2023-05-18T01:44:06.401Z,13.88
2023-05-18T01:46:41.242Z,18.63
2023-05-18T01:49:27.210Z,19.77
2023-05-18T01:54:23.486Z,16.00
2023-05-18T01:56:52.202Z,18.60
2023-05-18T01:59:19.299Z,23.33
2023-05-18T02:01:46.295Z,12.20
2023-05-18T02:04:15.689Z,16.02
2023-05-18T02:06:43.038Z,15.13
2023-05-18T02:09:09.956Z,15.48
2023-05-18T02:11:36.971Z,15.95
2023-05-18T02:14:03.910Z,16.77
2023-05-18T02:16:30.941Z,11.32
2023-05-18T02:18:58.115Z,13.55
2023-05-18T02:21:26.087Z,16.77
2023-05-18T02:23:53.179Z,10.05
2023-05-18T02:26:20.946Z,14.85
2023-05-18T02:28:52.556Z,23.88
2023-05-18T02:31:19.542Z,17.20
2023-05-18T02:33:46.726Z,17.63
2023-05-18T02:36:14.896Z,13.15
2023-05-18T02:38:43.446Z,8.70
2023-05-18T02:41:12.064Z,15.00
2023-05-18T02:43:39.084Z,11.55
2023-05-18T02:46:07.558Z,12.75
2023-05-18T02:48:34.640Z,19.48
2023-05-18T02:51:01.540Z,21.40
2023-05-18T02:53:28.446Z,11.25
2023-05-18T02:56:03.928Z,14.20
2023-05-18T02:58:47.247Z,11.47
2023-05-18T03:01:22.140Z,12.20
2023-05-18T03:03:53.226Z,13.77
2023-05-18T03:06:26.430Z,15.88
2023-05-18T03:08:54.849Z,8.77
2023-05-18T03:11:26.584Z,12.00
2023-05-18T03:13:54.769Z,21.90
2023-05-18T03:16:21.716Z,11.10
2023-05-18T03:18:48.684Z,15.57
2023-05-18T03:21:16.667Z,15.93
2023-05-18T03:23:43.672Z,16.27
2023-05-18T03:26:11.784Z,17.92
2023-05-18T03:28:39.661Z,19.90
2023-05-18T03:31:06.870Z,17.20
2023-05-18T03:33:34.353Z,15.05
2023-05-18T03:36:03.822Z,16.17
2023-05-18T03:38:31.573Z,10.38
2023-05-18T03:41:04.569Z,15.75
2023-05-18T03:43:32.541Z,9.18
2023-05-18T03:46:01.186Z,9.90
2023-05-18T03:48:28.168Z,19.15
2023-05-18T03:50:55.651Z,12.55
2023-05-18T03:53:23.087Z,11.43
2023-05-18T03:55:51.756Z,16.08
2023-05-18T03:58:22.466Z,14.68
2023-05-18T04:00:49.736Z,6.72
2023-05-18T04:03:17.069Z,12.93
2023-05-18T04:05:44.422Z,13.23
2023-05-18T04:08:14.567Z,12.02
2023-05-18T04:10:43.367Z,14.80
2023-05-18T04:13:10.550Z,11.60
2023-05-18T04:15:38.043Z,13.93
2023-05-18T04:18:05.753Z,16.85
2023-05-18T04:20:32.777Z,10.30
2023-05-18T04:23:01.123Z,11.40
2023-05-18T04:25:28.705Z,9.95
2023-05-18T04:27:56.819Z,7.63
2023-05-18T04:30:27.454Z,12.90
2023-05-18T04:32:54.780Z,8.88
2023-05-18T04:35:22.185Z,11.70
2023-05-18T04:37:49.259Z,9.25
2023-05-18T04:40:17.868Z,12.30
2023-05-18T04:42:47.717Z,11.13
2023-05-18T04:45:20.523Z,14.95
2023-05-18T04:47:53.255Z,11.75
2023-05-18T04:50:23.924Z,8.30
2023-05-18T04:52:52.134Z,9.50
2023-05-18T04:55:29.501Z,11.65
2023-05-18T04:58:00.449Z,13.52
2023-05-18T05:00:29.502Z,9.00
2023-05-18T05:02:57.784Z,10.23
2023-05-18T05:05:25.926Z,11.23
2023-05-18T05:07:53.753Z,14.40
2023-05-18T05:10:21.116Z,11.18
2023-05-18T05:12:49.991Z,16.63
2023-05-18T05:15:18.317Z,8.35
2023-05-18T05:17:47.312Z,14.00
2023-05-18T05:20:14.534Z,9.50
2023-05-18T05:22:42.307Z,8.93
2023-05-18T05:25:11.950Z,9.73
2023-05-18T05:27:39.707Z,13.95
2023-05-18T05:30:07.468Z,11.98
2023-05-18T05:32:36.992Z,9.45
2023-05-18T05:35:06.103Z,8.63
2023-05-18T05:37:33.667Z,9.10
2023-05-18T05:40:01.374Z,11.40
2023-05-18T05:42:30.984Z,11.00
2023-05-18T05:44:58.208Z,11.55
2023-05-18T05:47:26.915Z,16.77
2023-05-18T05:49:54.820Z,11.55
2023-05-18T05:52:22.348Z,9.70
2023-05-18T05:54:49.497Z,12.43
2023-05-18T05:57:16.444Z,9.93
2023-05-18T05:59:44.731Z,16.10
2023-05-18T06:02:12.335Z,13.20
2023-05-18T06:04:40.618Z,9.48
2023-05-18T06:07:07.692Z,8.80
2023-05-18T06:09:34.821Z,15.90
2023-05-18T06:12:02.012Z,9.57
2023-05-18T06:14:29.458Z,10.32
2023-05-18T06:16:57.795Z,15.82
2023-05-18T06:19:25.070Z,11.05
2023-05-18T06:21:53.276Z,10.20
2023-05-18T06:24:20.224Z,11.07
2023-05-18T06:29:37.597Z,12.10
2023-05-18T06:32:13.720Z,7.20
2023-05-18T06:34:45.785Z,10.13
2023-05-18T06:37:13.057Z,11.30
2023-05-18T06:39:40.482Z,10.65
2023-05-18T06:42:07.913Z,9.80
2023-05-18T06:44:35.904Z,12.90
2023-05-18T06:47:09.816Z,9.55
2023-05-18T06:49:37.036Z,8.77
2023-05-18T06:52:04.683Z,13.52
2023-05-18T06:54:32.566Z,14.52
2023-05-18T06:57:00.285Z,13.00
2023-05-18T06:59:27.654Z,9.57
2023-05-18T07:01:54.652Z,8.35
2023-05-18T07:04:23.706Z,7.20
2023-05-18T07:06:51.503Z,9.05
2023-05-18T07:09:18.503Z,10.40
2023-05-18T07:11:45.524Z,14.30
2023-05-18T07:14:12.455Z,14.32
2023-05-18T07:16:39.655Z,8.95
2023-05-18T07:19:06.751Z,9.85
2023-05-18T07:21:34.506Z,13.73
2023-05-18T07:24:01.596Z,11.40
2023-05-18T07:26:29.721Z,11.30
2023-05-18T07:28:56.637Z,7.85
2023-05-18T07:31:23.540Z,9.55
2023-05-18T07:33:50.607Z,13.07
2023-05-18T07:36:17.486Z,9.90
2023-05-18T07:38:44.627Z,13.75
2023-05-18T07:41:11.498Z,12.30
2023-05-18T07:43:38.576Z,10.80
2023-05-18T07:46:05.624Z,10.18
2023-05-18T07:48:32.560Z,7.55
2023-05-18T07:50:59.612Z,14.35
2023-05-18T07:53:26.688Z,8.18
2023-05-18T07:55:53.560Z,10.60
2023-05-18T07:58:20.490Z,10.40
2023-05-18T08:00:47.490Z,12.15
2023-05-18T08:03:14.534Z,12.10
2023-05-18T08:05:41.966Z,12.82
2023-05-18T08:08:11.910Z,11.07
2023-05-18T08:10:38.943Z,15.77
2023-05-18T08:13:05.789Z,9.65
2023-05-18T08:15:33.167Z,11.70
2023-05-18T08:18:01.676Z,13.10
2023-05-18T08:20:30.179Z,17.52
2023-05-18T08:22:57.538Z,7.85
2023-05-18T08:25:25.624Z,17.00
2023-05-18T08:27:52.974Z,11.68
2023-05-18T08:30:21.599Z,12.20
2023-05-18T08:32:48.889Z,13.10
2023-05-18T08:35:15.864Z,11.27
2023-05-18T08:37:42.759Z,10.65
2023-05-18T08:40:11.562Z,9.43
2023-05-18T08:43:00.514Z,9.88
2023-05-18T08:45:42.729Z,12.88
2023-05-18T08:48:11.433Z,6.03
2023-05-18T08:50:41.152Z,10.43
2023-05-18T08:53:10.728Z,11.73
2023-05-18T08:55:38.200Z,16.13
2023-05-18T08:58:07.743Z,10.02
2023-05-18T09:00:35.174Z,9.88
2023-05-18T09:03:05.015Z,12.40
2023-05-18T09:05:32.571Z,8.50
2023-05-18T09:08:00.533Z,9.95
2023-05-18T09:10:28.269Z,9.25
2023-05-18T09:12:56.815Z,15.07
2023-05-18T09:15:25.437Z,13.23
2023-05-18T09:17:52.777Z,15.18
2023-05-18T09:20:20.921Z,7.20
2023-05-18T09:22:51.332Z,11.90
2023-05-18T09:25:19.021Z,14.98
2023-05-18T09:27:47.883Z,11.25
2023-05-18T09:30:14.879Z,12.13
2023-05-18T09:32:42.421Z,9.20
2023-05-18T09:35:09.783Z,12.85
2023-05-18T09:37:37.161Z,8.82
2023-05-18T09:40:09.055Z,11.82
2023-05-18T09:42:40.659Z,12.10
2023-05-18T09:45:17.639Z,9.40
2023-05-18T09:47:45.215Z,11.63
2023-05-18T09:50:12.438Z,18.88
2023-05-18T09:52:43.937Z,13.38
2023-05-18T09:55:11.946Z,10.38
2023-05-18T09:57:41.598Z,13.60
2023-05-18T10:00:12.668Z,11.70
2023-05-18T10:02:48.717Z,12.55
2023-05-18T10:05:36.014Z,11.20
2023-05-18T10:08:03.384Z,13.32
2023-05-18T10:10:30.796Z,10.70
2023-05-18T10:12:58.701Z,11.27
2023-05-18T10:15:26.082Z,12.48
2023-05-18T10:17:57.063Z,9.85
2023-05-18T10:20:26.805Z,11.23
2023-05-18T10:22:56.013Z,15.38
2023-05-18T10:25:25.632Z,11.07
2023-05-18T10:27:57.509Z,17.05
2023-05-18T10:30:24.635Z,10.55
2023-05-18T10:32:52.468Z,12.88
2023-05-18T10:35:19.829Z,10.75
2023-05-18T10:37:48.078Z,11.63
2023-05-18T10:40:15.838Z,9.40
2023-05-18T10:42:43.676Z,10.15
2023-05-18T10:45:10.878Z,11.80
2023-05-18T10:47:42.392Z,12.70
2023-05-18T10:50:10.207Z,9.82
2023-05-18T10:52:38.022Z,13.55
2023-05-18T10:55:06.855Z,14.98
2023-05-18T10:57:44.691Z,11.38
2023-05-18T11:00:12.365Z,16.02
2023-05-18T11:02:42.997Z,11.93
2023-05-18T11:05:11.799Z,11.45
2023-05-18T11:07:39.033Z,12.85
2023-05-18T11:10:10.810Z,12.55
2023-05-18T11:12:40.088Z,11.65
2023-05-18T11:15:08.026Z,13.63
2023-05-18T11:17:35.328Z,10.65
2023-05-18T11:20:08.770Z,9.43
2023-05-18T11:23:01.975Z,10.18
2023-05-18T11:25:29.050Z,11.70
2023-05-18T11:28:07.681Z,6.85
2023-05-18T11:30:34.876Z,13.13
2023-05-18T11:33:36.558Z,13.60
2023-05-18T11:36:08.851Z,15.48
2023-05-18T11:38:50.449Z,10.50
2023-05-18T11:41:35.290Z,12.95
2023-05-18T11:44:12.622Z,13.45
2023-05-18T11:46:52.024Z,13.07
2023-05-18T11:49:22.002Z,13.55
2023-05-18T11:52:05.966Z,11.23
2023-05-18T11:54:43.400Z,8.65
2023-05-18T11:57:11.456Z,18.90
2023-05-18T11:59:43.120Z,10.55
2023-05-18T12:02:11.989Z,11.02
2023-05-18T12:05:07.003Z,11.75
2023-05-18T12:07:35.529Z,12.45
2023-05-18T12:10:07.406Z,14.18
2023-05-18T12:12:34.933Z,12.02
2023-05-18T12:15:06.910Z,15.43
2023-05-18T12:17:40.746Z,14.60
2023-05-18T12:20:11.236Z,12.82
2023-05-18T12:22:53.651Z,15.55
2023-05-18T12:25:23.314Z,14.15
2023-05-18T12:27:51.800Z,15.88
2023-05-18T12:30:20.217Z,12.30
2023-05-18T12:32:52.307Z,14.38
2023-05-18T12:35:27.351Z,16.13
2023-05-18T12:38:00.316Z,16.63
2023-05-18T12:40:28.317Z,16.48
2023-05-18T12:42:57.161Z,22.17
2023-05-18T12:45:26.876Z,17.92
2023-05-18T12:47:55.334Z,13.98
2023-05-18T12:50:24.966Z,17.95
2023-05-18T12:52:52.368Z,13.82
2023-05-18T12:55:21.923Z,20.35
2023-05-18T12:58:02.555Z,18.23
2023-05-18T13:00:36.565Z,18.50
2023-05-18T13:03:15.928Z,17.38
2023-05-18T13:05:45.554Z,20.00
2023-05-18T13:08:21.951Z,12.52
2023-05-18T13:11:01.390Z,14.52
2023-05-18T13:13:33.084Z,14.80
2023-05-18T13:16:00.514Z,11.73
2023-05-18T13:18:28.462Z,19.17
2023-05-18T13:20:57.004Z,17.67
2023-05-18T13:23:28.787Z,15.55
2023-05-18T13:25:58.664Z,15.50
2023-05-18T13:28:27.364Z,17.02
2023-05-18T13:30:54.608Z,16.17
2023-05-18T13:33:21.711Z,16.55
2023-05-18T13:35:49.785Z,16.60
2023-05-18T13:38:17.017Z,15.40
2023-05-18T13:40:45.913Z,20.88
2023-05-18T13:43:13.976Z,14.32
2023-05-18T13:45:41.724Z,22.77
2023-05-18T13:48:11.003Z,19.00
2023-05-18T13:50:39.505Z,15.98
2023-05-18T13:53:07.024Z,16.15
2023-05-18T13:55:34.880Z,20.88
2023-05-18T13:58:01.889Z,14.55
2023-05-18T14:00:28.884Z,13.50
2023-05-18T14:02:57.103Z,15.85
2023-05-18T14:05:24.524Z,16.08
2023-05-18T14:07:54.706Z,16.30
2023-05-18T14:10:21.801Z,16.58
2023-05-18T14:12:49.066Z,16.38
2023-05-18T14:15:16.201Z,12.43
2023-05-18T14:17:43.595Z,20.58
2023-05-18T14:20:12.118Z,17.05
2023-05-18T14:22:39.448Z,13.70
2023-05-18T14:25:06.672Z,18.17
2023-05-18T14:27:33.566Z,16.25
2023-05-18T14:30:01.283Z,20.05
2023-05-18T14:32:28.542Z,14.20
2023-05-18T14:34:57.863Z,14.93
2023-05-18T14:37:25.183Z,16.52
2023-05-18T14:39:52.338Z,18.05
2023-05-18T14:42:19.257Z,19.20
2023-05-18T14:44:46.828Z,17.13
2023-05-18T14:47:13.860Z,26.10
2023-05-18T14:49:40.910Z,19.48
2023-05-18T14:52:07.855Z,18.00
2023-05-18T14:54:35.033Z,12.68
2023-05-18T14:57:02.008Z,16.45
2023-05-18T14:59:28.925Z,17.10
2023-05-18T15:01:55.926Z,15.93
2023-05-18T15:04:23.611Z,18.77
2023-05-18T15:06:50.792Z,25.20
2023-05-18T15:09:17.682Z,20.25
2023-05-18T15:11:44.786Z,16.90
2023-05-18T15:14:11.660Z,19.02
2023-05-18T15:16:39.014Z,16.65
2023-05-18T15:19:06.309Z,20.13
2023-05-18T15:21:33.349Z,17.63
2023-05-18T15:24:00.397Z,22.83
2023-05-18T15:26:27.753Z,21.08
2023-05-18T15:28:54.751Z,20.05
2023-05-18T15:31:21.815Z,13.18
2023-05-18T15:33:48.807Z,17.98
2023-05-18T15:36:16.103Z,17.77
2023-05-18T15:38:43.009Z,21.27
2023-05-18T15:41:09.946Z,17.55
2023-05-18T15:43:37.531Z,15.07
2023-05-18T15:46:05.306Z,16.20
2023-05-18T15:48:32.198Z,22.40
2023-05-18T15:50:59.211Z,15.55
2023-05-18T15:53:26.158Z,17.25
2023-05-18T15:55:57.423Z,15.05
2023-05-18T15:58:26.642Z,18.17
2023-05-18T16:00:53.844Z,22.65
2023-05-18T16:03:21.436Z,19.95
2023-05-18T16:05:48.580Z,23.40
2023-05-18T16:08:15.514Z,20.30
2023-05-18T16:10:42.392Z,22.73
2023-05-18T16:13:09.529Z,13.88
2023-05-18T16:15:36.553Z,14.70
2023-05-18T16:18:03.820Z,19.48
2023-05-18T16:20:31.169Z,21.88
2023-05-18T16:22:58.741Z,19.40
2023-05-18T16:25:26.365Z,15.02
2023-05-18T16:27:53.288Z,21.13
2023-05-18T16:30:20.284Z,19.17
2023-05-18T16:32:47.413Z,13.18
2023-05-18T16:35:14.322Z,16.02
2023-05-18T16:37:41.306Z,15.48
2023-05-18T16:40:08.837Z,18.08
2023-05-18T16:42:35.903Z,20.25
2023-05-18T16:45:03.039Z,12.13
2023-05-18T16:47:32.696Z,15.27
2023-05-18T16:50:00.573Z,17.30
2023-05-18T16:52:27.734Z,17.10
2023-05-18T16:54:54.567Z,14.82
2023-05-18T16:57:22.121Z,16.83
2023-05-18T16:59:49.378Z,15.60
2023-05-18T17:02:17.773Z,13.98
2023-05-18T17:04:50.483Z,14.70
2023-05-18T17:07:17.634Z,24.70
2023-05-18T17:09:44.965Z,24.60
2023-05-18T17:12:12.526Z,21.33
2023-05-18T17:14:39.792Z,19.50
2023-05-18T17:17:07.698Z,15.20
2023-05-18T17:19:35.180Z,18.38
2023-05-18T17:22:03.529Z,16.88
2023-05-18T17:24:31.044Z,15.25
2023-05-18T17:26:58.306Z,13.85
2023-05-18T17:29:25.295Z,17.08
2023-05-18T17:31:52.383Z,22.20
2023-05-18T17:34:19.329Z,13.05
2023-05-18T17:36:46.496Z,12.13
2023-05-18T17:39:15.693Z,21.30
2023-05-18T17:41:43.944Z,22.90
2023-05-18T17:44:14.613Z,18.95
2023-05-18T17:46:42.069Z,15.55
2023-05-18T17:49:09.223Z,20.00
2023-05-18T17:51:36.278Z,15.30
2023-05-18T17:54:03.577Z,21.52
2023-05-18T17:56:31.680Z,16.77
2023-05-18T17:58:59.144Z,17.50
2023-05-18T18:01:27.245Z,15.73
2023-05-18T18:03:55.176Z,20.10
2023-05-18T18:06:22.860Z,15.35
2023-05-18T18:08:50.818Z,14.13
2023-05-18T18:11:17.919Z,18.02
2023-05-18T18:13:44.812Z,21.55
2023-05-18T18:16:12.020Z,19.23
2023-05-18T18:18:39.232Z,10.10
2023-05-18T18:21:06.620Z,20.10
2023-05-18T18:23:34.559Z,13.57
2023-05-18T18:26:02.376Z,20.00
2023-05-18T18:28:29.435Z,18.35
2023-05-18T18:30:56.877Z,13.85
2023-05-18T18:33:26.160Z,20.73
2023-05-18T18:35:54.670Z,11.02
2023-05-18T18:38:22.292Z,17.42
2023-05-18T18:40:49.577Z,26.10
2023-05-18T18:43:16.433Z,18.52
2023-05-18T18:45:43.558Z,22.30
2023-05-18T18:48:10.611Z,13.93
2023-05-18T18:50:37.603Z,23.25
2023-05-18T18:53:04.526Z,18.67
2023-05-18T18:55:31.723Z,19.35
2023-05-18T18:58:01.215Z,20.15
2023-05-18T19:00:28.267Z,13.05
2023-05-18T19:02:55.325Z,15.15
2023-05-18T19:05:24.225Z,12.52
2023-05-18T19:10:23.079Z,14.57
2023-05-18T19:12:50.010Z,17.55
2023-05-18T19:15:16.962Z,23.77
2023-05-18T19:17:45.992Z,19.75
2023-05-18T19:20:13.249Z,14.20
2023-05-18T19:22:40.404Z,14.77
2023-05-18T19:25:07.581Z,23.05
2023-05-18T19:27:34.513Z,19.45
2023-05-18T19:30:04.095Z,15.73
2023-05-18T19:32:31.754Z,14.40
2023-05-18T19:34:58.656Z,20.02
2023-05-18T19:37:25.674Z,13.30
2023-05-18T19:39:52.604Z,14.35
2023-05-18T19:42:19.531Z,15.30
2023-05-18T19:44:46.422Z,18.77
2023-05-18T19:47:13.387Z,19.20
2023-05-18T19:49:40.232Z,20.98
2023-05-18T19:52:09.424Z,19.27
2023-05-18T19:54:37.350Z,20.85
2023-05-18T19:57:04.511Z,14.68
2023-05-18T19:59:31.446Z,21.38
2023-05-18T20:01:59.442Z,21.00
2023-05-18T20:04:28.482Z,15.93
2023-05-18T20:06:59.710Z,19.52
2023-05-18T20:09:27.827Z,15.57
2023-05-18T20:11:56.207Z,18.52
2023-05-18T20:14:23.882Z,23.30
2023-05-18T20:16:56.157Z,22.63
2023-05-18T20:19:23.451Z,19.08
2023-05-18T20:21:50.496Z,25.40
2023-05-18T20:24:17.423Z,19.98
2023-05-18T20:26:44.492Z,17.33
2023-05-18T20:29:11.422Z,22.48
2023-05-18T20:31:38.550Z,23.17
2023-05-18T20:34:06.976Z,20.58
2023-05-18T20:36:35.837Z,21.02
2023-05-18T20:39:03.859Z,23.65
2023-05-18T20:41:30.797Z,15.60
2023-05-18T20:44:02.566Z,20.70
2023-05-18T20:46:31.188Z,20.92
2023-05-18T20:48:58.203Z,19.55
2023-05-18T20:51:25.348Z,18.23
2023-05-18T20:53:52.375Z,16.33
2023-05-18T20:56:19.294Z,23.45
2023-05-18T20:58:48.561Z,19.50
2023-05-18T21:01:16.749Z,23.73
2023-05-18T21:03:45.377Z,21.27
2023-05-18T21:06:15.228Z,19.92
2023-05-18T21:08:45.372Z,20.38
2023-05-18T21:11:12.433Z,23.55
2023-05-18T21:13:39.295Z,19.10
2023-05-18T21:16:08.439Z,20.08
2023-05-18T21:18:35.770Z,18.75
2023-05-18T21:21:03.458Z,18.60
2023-05-18T21:23:30.802Z,24.65
2023-05-18T21:25:58.215Z,23.08
2023-05-18T21:28:25.431Z,29.58
2023-05-18T21:30:53.967Z,22.77
2023-05-18T21:33:21.797Z,22.60
2023-05-18T21:35:49.275Z,21.60
2023-05-18T21:38:17.290Z,22.27
2023-05-18T21:40:44.419Z,23.17
2023-05-18T21:43:12.733Z,23.15
2023-05-18T21:45:40.318Z,20.73
2023-05-18T21:48:07.812Z,18.50
2023-05-18T21:50:35.496Z,21.05
2023-05-18T21:53:03.359Z,20.08
2023-05-18T21:55:31.677Z,20.92
2023-05-18T21:57:58.767Z,18.40
2023-05-18T22:00:26.177Z,30.70
2023-05-18T22:02:53.131Z,25.17
2023-05-18T22:05:20.163Z,24.85
2023-05-18T22:07:47.097Z,23.30
2023-05-18T22:10:14.103Z,30.70
2023-05-18T22:12:43.371Z,20.45
2023-05-18T22:15:10.852Z,22.00
2023-05-18T22:17:38.877Z,27.73
2023-05-18T22:20:09.403Z,33.72
2023-05-18T22:22:36.489Z,22.60
2023-05-18T22:25:03.422Z,25.42
2023-05-18T22:27:30.498Z,26.17
2023-05-18T22:29:57.488Z,25.73
2023-05-18T22:32:24.865Z,38.53
2023-05-18T22:34:52.060Z,26.65
2023-05-18T22:37:19.103Z,31.95
2023-05-18T22:39:46.013Z,34.30
2023-05-18T22:42:12.963Z,26.48
2023-05-18T22:44:39.896Z,22.27
2023-05-18T22:47:06.920Z,31.73
2023-05-18T22:49:35.743Z,21.73
2023-05-18T22:52:06.682Z,30.50
2023-05-18T22:54:33.935Z,25.75
2023-05-18T22:57:00.886Z,23.77
2023-05-18T22:59:28.763Z,27.55
2023-05-18T23:01:55.810Z,20.45
2023-05-18T23:04:22.825Z,27.67
2023-05-18T23:06:50.752Z,21.80
2023-05-18T23:09:18.238Z,28.42
2023-05-18T23:11:45.211Z,31.55
2023-05-18T23:14:12.866Z,19.42
2023-05-18T23:16:42.628Z,28.25
2023-05-18T23:19:12.388Z,18.52
2023-05-18T23:21:40.525Z,17.63
2023-05-18T23:24:12.143Z,18.08
2023-05-18T23:26:43.538Z,20.15
2023-05-18T23:29:11.041Z,23.88
2023-05-18T23:31:38.163Z,21.20
2023-05-18T23:34:05.685Z,19.92
2023-05-18T23:36:36.771Z,28.95
2023-05-18T23:39:04.222Z,18.27
2023-05-18T23:41:32.137Z,26.20
2023-05-18T23:43:59.441Z,22.67
2023-05-18T23:46:26.683Z,31.35
2023-05-18T23:48:54.751Z,23.02
2023-05-18T23:51:22.198Z,22.55
2023-05-18T23:53:50.862Z,22.75
2023-05-18T23:56:18.374Z,22.30
2023-05-18T23:58:46.703Z,29.30
